Time;durP1;ratioP1;P1;durP2;ratioP2;P2;SDS_P1;SDS_P2;PMS_P1;PMS_P2;Temp;Humidity;BMP_temperature;BMP_pressure;BME280_temperature;BME280_humidity;BME280_pressure;Samples;Min_cycle;Max_cycle;Signal;HPM_P1;HPM_P2
2022/06/09 00:00:13;;;;;;;2.35;1.6;;;;;;;14.05;85.62402;94741.24;;;;
2022/06/09 00:01:15;;;;;;;2.35;1.6;;;;;;;14.05;85.62402;94741.24;;;;
2022/06/09 00:02:23;;;;;;;2.35;1.6;;;;;;;14.05;85.62402;94741.24;;;;
2022/06/09 00:03:24;;;;;;;2.35;1.6;;;;;;;14.05;85.62402;94741.24;;;;
2022/06/09 00:04:30;;;;;;;2.35;1.6;;;;;;;14.05;85.62402;94741.24;;;;
2022/06/09 00:05:36;;;;;;;2.35;1.6;;;;;;;14.05;85.62402;94741.24;;;;
2022/06/09 00:06:38;;;;;;;2.35;1.6;;;;;;;14.05;85.62402;94741.24;;;;
2022/06/09 00:07:44;;;;;;;2.35;1.6;;;;;;;14.05;85.62402;94741.24;;;;
2022/06/09 00:08:47;;;;;;;2.35;1.6;;;;;;;14.05;85.62402;94741.24;;;;
2022/06/09 00:09:52;;;;;;;2.35;1.6;;;;;;;14.05;85.62402;94741.24;;;;
2022/06/09 00:10:58;;;;;;;2.35;1.6;;;;;;;14.05;85.62402;94741.24;;;;
2022/06/09 00:12:03;;;;;;;2.35;1.6;;;;;;;14.05;85.62402;94741.24;;;;
2022/06/09 00:13:05;;;;;;;2.35;1.6;;;;;;;14.05;85.62402;94741.24;;;;
2022/06/09 00:14:06;;;;;;;1.6;1.5;;;;;;;14.07;86.21094;94741.25;;;;
2022/06/09 00:15:08;;;;;;;1.6;1.5;;;;;;;14.07;86.21094;94741.25;;;;
2022/06/09 00:16:13;;;;;;;1.6;1.5;;;;;;;14.07;86.21094;94741.25;;;;
2022/06/09 00:17:15;;;;;;;1.6;1.5;;;;;;;14.07;86.21094;94741.25;;;;
2022/06/09 00:18:16;;;;;;;1.6;1.5;;;;;;;14.07;86.21094;94741.25;;;;
2022/06/09 00:19:16;;;;;;;1.6;1.5;;;;;;;14.07;86.21094;94741.25;;;;
2022/06/09 00:20:17;;;;;;;1.6;1.5;;;;;;;14.07;86.21094;94741.25;;;;
2022/06/09 00:21:18;;;;;;;1.6;1.5;;;;;;;14.07;86.21094;94741.25;;;;
2022/06/09 00:22:19;;;;;;;1.6;1.5;;;;;;;14.07;86.21094;94741.25;;;;
2022/06/09 00:23:19;;;;;;;1.6;1.5;;;;;;;14.07;86.21094;94741.25;;;;
2022/06/09 00:24:21;;;;;;;1.6;1.5;;;;;;;14.07;86.21094;94741.25;;;;
2022/06/09 00:25:22;;;;;;;2.2;1.8;;;;;;;14.07;86.37305;94742.21;;;;
2022/06/09 00:26:22;;;;;;;2.2;1.8;;;;;;;14.07;86.37305;94742.21;;;;
2022/06/09 00:27:23;;;;;;;2.2;1.8;;;;;;;14.07;86.37305;94742.21;;;;
2022/06/09 00:28:23;;;;;;;2.2;1.8;;;;;;;14.07;86.37305;94742.21;;;;
2022/06/09 00:29:24;;;;;;;2.2;1.8;;;;;;;14.07;86.37305;94742.21;;;;
2022/06/09 00:30:25;;;;;;;2.2;1.8;;;;;;;14.07;86.37305;94742.21;;;;
2022/06/09 00:31:25;;;;;;;2.2;1.8;;;;;;;14.07;86.37305;94742.21;;;;
2022/06/09 00:32:26;;;;;;;2.2;1.8;;;;;;;14.07;86.37305;94742.21;;;;
2022/06/09 00:33:26;;;;;;;2.2;1.8;;;;;;;14.07;86.37305;94742.21;;;;
2022/06/09 00:34:27;;;;;;;2.2;1.8;;;;;;;14.07;86.37305;94742.21;;;;
2022/06/09 00:35:27;;;;;;;3.9;2.05;;;;;;;14.14;86.70117;94759.58;;;;
2022/06/09 00:36:29;;;;;;;3.9;2.05;;;;;;;14.14;86.70117;94759.58;;;;
2022/06/09 00:37:29;;;;;;;3.9;2.05;;;;;;;14.14;86.70117;94759.58;;;;
2022/06/09 00:38:30;;;;;;;3.9;2.05;;;;;;;14.14;86.70117;94759.58;;;;
2022/06/09 00:39:30;;;;;;;3.9;2.05;;;;;;;14.14;86.70117;94759.58;;;;
2022/06/09 00:40:31;;;;;;;3.9;2.05;;;;;;;14.14;86.70117;94759.58;;;;
2022/06/09 00:41:31;;;;;;;3.9;2.05;;;;;;;14.14;86.70117;94759.58;;;;
2022/06/09 00:42:37;;;;;;;3.9;2.05;;;;;;;14.14;86.70117;94759.58;;;;
2022/06/09 00:43:37;;;;;;;3.9;2.05;;;;;;;14.14;86.70117;94759.58;;;;
2022/06/09 00:44:40;;;;;;;3.9;2.05;;;;;;;14.14;86.70117;94759.58;;;;
2022/06/09 00:45:42;;;;;;;3.9;2.05;;;;;;;14.14;86.70117;94759.58;;;;
2022/06/09 00:46:47;;;;;;;3.3;2.2;;;;;;;14.16;86.82422;94765.97;;;;
2022/06/09 00:47:53;;;;;;;3.3;2.2;;;;;;;14.16;86.82422;94765.97;;;;
2022/06/09 00:49:02;;;;;;;3.3;2.2;;;;;;;14.16;86.82422;94765.97;;;;
2022/06/09 00:50:09;;;;;;;3.3;2.2;;;;;;;14.16;86.82422;94765.97;;;;
2022/06/09 00:51:14;;;;;;;3.3;2.2;;;;;;;14.16;86.82422;94765.97;;;;
2022/06/09 00:52:25;;;;;;;3.3;2.2;;;;;;;14.16;86.82422;94765.97;;;;
2022/06/09 00:53:30;;;;;;;3.3;2.2;;;;;;;14.16;86.82422;94765.97;;;;
2022/06/09 00:54:37;;;;;;;3.3;2.2;;;;;;;14.16;86.82422;94765.97;;;;
2022/06/09 00:55:40;;;;;;;3.3;2.2;;;;;;;14.16;86.82422;94765.97;;;;
2022/06/09 00:56:42;;;;;;;3.2;2.25;;;;;;;14.22;87.05273;94771.11;;;;
2022/06/09 00:57:48;;;;;;;3.2;2.25;;;;;;;14.22;87.05273;94771.11;;;;
2022/06/09 00:58:52;;;;;;;3.2;2.25;;;;;;;14.22;87.05273;94771.11;;;;
2022/06/09 00:59:55;;;;;;;3.2;2.25;;;;;;;14.22;87.05273;94771.11;;;;
2022/06/09 01:01:03;;;;;;;3.2;2.25;;;;;;;14.22;87.05273;94771.11;;;;
2022/06/09 01:02:07;;;;;;;3.2;2.25;;;;;;;14.22;87.05273;94771.11;;;;
2022/06/09 01:03:10;;;;;;;3.2;2.25;;;;;;;14.22;87.05273;94771.11;;;;
2022/06/09 01:04:10;;;;;;;3.2;2.25;;;;;;;14.22;87.05273;94771.11;;;;
2022/06/09 01:05:13;;;;;;;3.2;2.25;;;;;;;14.22;87.05273;94771.11;;;;
2022/06/09 01:06:17;;;;;;;3.2;2.25;;;;;;;14.22;87.05273;94771.11;;;;
2022/06/09 01:07:24;;;;;;;3.05;2.35;;;;;;;14.23;87.23926;94770.04;;;;
2022/06/09 01:08:32;;;;;;;3.05;2.35;;;;;;;14.23;87.23926;94770.04;;;;
2022/06/09 01:09:34;;;;;;;3.05;2.35;;;;;;;14.23;87.23926;94770.04;;;;
2022/06/09 01:10:35;;;;;;;3.05;2.35;;;;;;;14.23;87.23926;94770.04;;;;
2022/06/09 01:11:36;;;;;;;3.05;2.35;;;;;;;14.23;87.23926;94770.04;;;;
2022/06/09 01:12:37;;;;;;;3.05;2.35;;;;;;;14.23;87.23926;94770.04;;;;
2022/06/09 01:13:40;;;;;;;3.05;2.35;;;;;;;14.23;87.23926;94770.04;;;;
2022/06/09 01:14:42;;;;;;;3.05;2.35;;;;;;;14.23;87.23926;94770.04;;;;
2022/06/09 01:15:42;;;;;;;3.05;2.35;;;;;;;14.23;87.23926;94770.04;;;;
2022/06/09 01:16:50;;;;;;;3.05;2.35;;;;;;;14.23;87.23926;94770.04;;;;
2022/06/09 01:18:04;;;;;;;4.95;2.85;;;;;;;14.33;87.49707;94778.19;;;;
2022/06/09 01:19:30;;;;;;;4.95;2.85;;;;;;;14.33;87.49707;94778.19;;;;
2022/06/09 01:20:57;;;;;;;4.95;2.85;;;;;;;14.33;87.49707;94778.19;;;;
2022/06/09 01:22:06;;;;;;;4.95;2.85;;;;;;;14.33;87.49707;94778.19;;;;
2022/06/09 01:23:38;;;;;;;4.95;2.85;;;;;;;14.33;87.49707;94778.19;;;;
2022/06/09 01:25:13;;;;;;;4.95;2.85;;;;;;;14.33;87.49707;94778.19;;;;
2022/06/09 01:30:30;;;;;;;4.3;3;;;;;;;14.32;87.55859;94779.36;;;;
2022/06/09 01:31:41;;;;;;;4.3;3;;;;;;;14.32;87.55859;94779.36;;;;
2022/06/09 01:32:47;;;;;;;4.3;3;;;;;;;14.32;87.55859;94779.36;;;;
2022/06/09 01:33:53;;;;;;;4.3;3;;;;;;;14.32;87.55859;94779.36;;;;
2022/06/09 01:35:05;;;;;;;4.3;3;;;;;;;14.32;87.55859;94779.36;;;;
2022/06/09 01:36:17;;;;;;;4.3;3;;;;;;;14.32;87.55859;94779.36;;;;
2022/06/09 01:37:23;;;;;;;4.3;3;;;;;;;14.32;87.55859;94779.36;;;;
2022/06/09 01:38:29;;;;;;;4.3;3;;;;;;;14.32;87.55859;94779.36;;;;
2022/06/09 01:39:30;;;;;;;3.8;3.05;;;;;;;14.38;87.87207;94774.41;;;;
2022/06/09 01:40:47;;;;;;;3.8;3.05;;;;;;;14.38;87.87207;94774.41;;;;
2022/06/09 01:41:48;;;;;;;3.8;3.05;;;;;;;14.38;87.87207;94774.41;;;;
2022/06/09 01:42:48;;;;;;;3.8;3.05;;;;;;;14.38;87.87207;94774.41;;;;
2022/06/09 01:43:51;;;;;;;3.8;3.05;;;;;;;14.38;87.87207;94774.41;;;;
2022/06/09 01:44:53;;;;;;;3.8;3.05;;;;;;;14.38;87.87207;94774.41;;;;
2022/06/09 01:45:58;;;;;;;3.8;3.05;;;;;;;14.38;87.87207;94774.41;;;;
2022/06/09 01:47:05;;;;;;;3.8;3.05;;;;;;;14.38;87.87207;94774.41;;;;
2022/06/09 01:48:06;;;;;;;3.8;3.05;;;;;;;14.38;87.87207;94774.41;;;;
2022/06/09 01:49:10;;;;;;;3.8;3.05;;;;;;;14.38;87.87207;94774.41;;;;
2022/06/09 01:50:16;;;;;;;4.300001;3.3;;;;;;;14.37;87.94531;94777.17;;;;
2022/06/09 01:51:23;;;;;;;4.300001;3.3;;;;;;;14.37;87.94531;94777.17;;;;
2022/06/09 01:52:28;;;;;;;4.300001;3.3;;;;;;;14.37;87.94531;94777.17;;;;
2022/06/09 01:53:30;;;;;;;4.300001;3.3;;;;;;;14.37;87.94531;94777.17;;;;
2022/06/09 01:54:35;;;;;;;4.300001;3.3;;;;;;;14.37;87.94531;94777.17;;;;
2022/06/09 01:55:39;;;;;;;4.300001;3.3;;;;;;;14.37;87.94531;94777.17;;;;
2022/06/09 01:56:45;;;;;;;4.300001;3.3;;;;;;;14.37;87.94531;94777.17;;;;
2022/06/09 01:57:50;;;;;;;4.300001;3.3;;;;;;;14.37;87.94531;94777.17;;;;
2022/06/09 01:58:55;;;;;;;4.300001;3.3;;;;;;;14.37;87.94531;94777.17;;;;
2022/06/09 02:00:00;;;;;;;4.300001;3.3;;;;;;;14.37;87.94531;94777.17;;;;
2022/06/09 02:01:06;;;;;;;3.6;2.95;;;;;;;14.39;88.23242;94774.53;;;;
2022/06/09 02:02:09;;;;;;;3.6;2.95;;;;;;;14.39;88.23242;94774.53;;;;
2022/06/09 02:03:13;;;;;;;3.6;2.95;;;;;;;14.39;88.23242;94774.53;;;;
2022/06/09 02:04:20;;;;;;;3.6;2.95;;;;;;;14.39;88.23242;94774.53;;;;
2022/06/09 02:05:26;;;;;;;3.6;2.95;;;;;;;14.39;88.23242;94774.53;;;;
2022/06/09 02:06:31;;;;;;;3.6;2.95;;;;;;;14.39;88.23242;94774.53;;;;
2022/06/09 02:07:34;;;;;;;3.6;2.95;;;;;;;14.39;88.23242;94774.53;;;;
2022/06/09 02:08:36;;;;;;;3.6;2.95;;;;;;;14.39;88.23242;94774.53;;;;
2022/06/09 02:09:37;;;;;;;3.6;2.95;;;;;;;14.39;88.23242;94774.53;;;;
2022/06/09 02:10:38;;;;;;;3.6;2.95;;;;;;;14.39;88.23242;94774.53;;;;
2022/06/09 02:11:41;;;;;;;3.95;3.05;;;;;;;14.33;88.31641;94770.75;;;;
2022/06/09 02:12:49;;;;;;;3.95;3.05;;;;;;;14.33;88.31641;94770.75;;;;
2022/06/09 02:13:50;;;;;;;3.95;3.05;;;;;;;14.33;88.31641;94770.75;;;;
2022/06/09 02:14:54;;;;;;;3.95;3.05;;;;;;;14.33;88.31641;94770.75;;;;
2022/06/09 02:15:58;;;;;;;3.95;3.05;;;;;;;14.33;88.31641;94770.75;;;;
2022/06/09 02:17:01;;;;;;;3.95;3.05;;;;;;;14.33;88.31641;94770.75;;;;
2022/06/09 02:18:05;;;;;;;3.95;3.05;;;;;;;14.33;88.31641;94770.75;;;;
2022/06/09 02:19:09;;;;;;;3.95;3.05;;;;;;;14.33;88.31641;94770.75;;;;
2022/06/09 02:20:11;;;;;;;3.95;3.05;;;;;;;14.33;88.31641;94770.75;;;;
2022/06/09 02:21:13;;;;;;;3.95;3.05;;;;;;;14.33;88.31641;94770.75;;;;
2022/06/09 02:22:19;;;;;;;4.2;3.1;;;;;;;14.27;88.54102;94777.96;;;;
2022/06/09 02:23:19;;;;;;;4.2;3.1;;;;;;;14.27;88.54102;94777.96;;;;
2022/06/09 02:24:20;;;;;;;4.2;3.1;;;;;;;14.27;88.54102;94777.96;;;;
2022/06/09 02:25:21;;;;;;;4.2;3.1;;;;;;;14.27;88.54102;94777.96;;;;
2022/06/09 02:26:21;;;;;;;4.2;3.1;;;;;;;14.27;88.54102;94777.96;;;;
2022/06/09 02:27:23;;;;;;;4.2;3.1;;;;;;;14.27;88.54102;94777.96;;;;
2022/06/09 02:28:24;;;;;;;4.2;3.1;;;;;;;14.27;88.54102;94777.96;;;;
2022/06/09 02:29:24;;;;;;;4.2;3.1;;;;;;;14.27;88.54102;94777.96;;;;
2022/06/09 02:30:25;;;;;;;4.2;3.1;;;;;;;14.27;88.54102;94777.96;;;;
2022/06/09 02:31:25;;;;;;;4.2;3.1;;;;;;;14.27;88.54102;94777.96;;;;
2022/06/09 02:32:26;;;;;;;4.2;3.1;;;;;;;14.27;88.54102;94777.96;;;;
2022/06/09 02:33:27;;;;;;;3.55;3.25;;;;;;;14.1;88.60645;94778.38;;;;
2022/06/09 02:34:27;;;;;;;3.55;3.25;;;;;;;14.1;88.60645;94778.38;;;;
2022/06/09 02:35:28;;;;;;;3.55;3.25;;;;;;;14.1;88.60645;94778.38;;;;
2022/06/09 02:36:29;;;;;;;3.55;3.25;;;;;;;14.1;88.60645;94778.38;;;;
2022/06/09 02:37:29;;;;;;;3.55;3.25;;;;;;;14.1;88.60645;94778.38;;;;
2022/06/09 02:38:30;;;;;;;3.55;3.25;;;;;;;14.1;88.60645;94778.38;;;;
2022/06/09 02:39:31;;;;;;;3.55;3.25;;;;;;;14.1;88.60645;94778.38;;;;
2022/06/09 02:40:31;;;;;;;3.55;3.25;;;;;;;14.1;88.60645;94778.38;;;;
2022/06/09 02:41:32;;;;;;;3.55;3.25;;;;;;;14.1;88.60645;94778.38;;;;
2022/06/09 02:42:32;;;;;;;3.55;3.25;;;;;;;14.1;88.60645;94778.38;;;;
2022/06/09 02:43:33;;;;;;;3.6;3.3;;;;;;;14;88.74805;94779.6;;;;
2022/06/09 02:44:34;;;;;;;3.6;3.3;;;;;;;14;88.74805;94779.6;;;;
2022/06/09 02:45:34;;;;;;;3.6;3.3;;;;;;;14;88.74805;94779.6;;;;
2022/06/09 02:46:35;;;;;;;3.6;3.3;;;;;;;14;88.74805;94779.6;;;;
2022/06/09 02:47:36;;;;;;;3.6;3.3;;;;;;;14;88.74805;94779.6;;;;
2022/06/09 02:48:36;;;;;;;3.6;3.3;;;;;;;14;88.74805;94779.6;;;;
2022/06/09 02:49:38;;;;;;;3.6;3.3;;;;;;;14;88.74805;94779.6;;;;
2022/06/09 02:50:39;;;;;;;3.6;3.3;;;;;;;14;88.74805;94779.6;;;;
2022/06/09 02:51:40;;;;;;;3.6;3.3;;;;;;;14;88.74805;94779.6;;;;
2022/06/09 02:52:42;;;;;;;3.6;3.3;;;;;;;14;88.74805;94779.6;;;;
2022/06/09 02:53:42;;;;;;;3.6;3.3;;;;;;;14;88.74805;94779.6;;;;
2022/06/09 02:54:43;;;;;;;3.4;3.1;;;;;;;13.82;88.91699;94774.95;;;;
2022/06/09 02:55:44;;;;;;;3.4;3.1;;;;;;;13.82;88.91699;94774.95;;;;
2022/06/09 02:56:45;;;;;;;3.4;3.1;;;;;;;13.82;88.91699;94774.95;;;;
2022/06/09 02:57:45;;;;;;;3.4;3.1;;;;;;;13.82;88.91699;94774.95;;;;
2022/06/09 02:58:46;;;;;;;3.4;3.1;;;;;;;13.82;88.91699;94774.95;;;;
2022/06/09 02:59:47;;;;;;;3.4;3.1;;;;;;;13.82;88.91699;94774.95;;;;
2022/06/09 03:00:47;;;;;;;3.4;3.1;;;;;;;13.82;88.91699;94774.95;;;;
2022/06/09 03:01:48;;;;;;;3.4;3.1;;;;;;;13.82;88.91699;94774.95;;;;
2022/06/09 03:02:48;;;;;;;3.4;3.1;;;;;;;13.82;88.91699;94774.95;;;;
2022/06/09 03:03:52;;;;;;;3.4;3.1;;;;;;;13.82;88.91699;94774.95;;;;
2022/06/09 03:04:53;;;;;;;3.65;3.3;;;;;;;13.73;89.15723;94777.87;;;;
2022/06/09 03:05:54;;;;;;;3.65;3.3;;;;;;;13.73;89.15723;94777.87;;;;
2022/06/09 03:06:54;;;;;;;3.65;3.3;;;;;;;13.73;89.15723;94777.87;;;;
2022/06/09 03:07:55;;;;;;;3.65;3.3;;;;;;;13.73;89.15723;94777.87;;;;
2022/06/09 03:08:56;;;;;;;3.65;3.3;;;;;;;13.73;89.15723;94777.87;;;;
2022/06/09 03:09:56;;;;;;;3.65;3.3;;;;;;;13.73;89.15723;94777.87;;;;
2022/06/09 03:10:57;;;;;;;3.65;3.3;;;;;;;13.73;89.15723;94777.87;;;;
2022/06/09 03:11:58;;;;;;;3.65;3.3;;;;;;;13.73;89.15723;94777.87;;;;
2022/06/09 03:12:58;;;;;;;3.65;3.3;;;;;;;13.73;89.15723;94777.87;;;;
2022/06/09 03:13:59;;;;;;;3.65;3.3;;;;;;;13.73;89.15723;94777.87;;;;
2022/06/09 03:15:00;;;;;;;3.65;3.3;;;;;;;13.73;89.15723;94777.87;;;;
2022/06/09 03:16:01;;;;;;;4.7;3.6;;;;;;;13.6;89.28125;94798.12;;;;
2022/06/09 03:17:01;;;;;;;4.7;3.6;;;;;;;13.6;89.28125;94798.12;;;;
2022/06/09 03:18:02;;;;;;;4.7;3.6;;;;;;;13.6;89.28125;94798.12;;;;
2022/06/09 03:19:04;;;;;;;4.7;3.6;;;;;;;13.6;89.28125;94798.12;;;;
2022/06/09 03:20:05;;;;;;;4.7;3.6;;;;;;;13.6;89.28125;94798.12;;;;
2022/06/09 03:21:12;;;;;;;4.7;3.6;;;;;;;13.6;89.28125;94798.12;;;;
2022/06/09 03:22:14;;;;;;;4.7;3.6;;;;;;;13.6;89.28125;94798.12;;;;
2022/06/09 03:23:14;;;;;;;4.7;3.6;;;;;;;13.6;89.28125;94798.12;;;;
2022/06/09 03:24:15;;;;;;;4.7;3.6;;;;;;;13.6;89.28125;94798.12;;;;
2022/06/09 03:25:16;;;;;;;4.7;3.6;;;;;;;13.6;89.28125;94798.12;;;;
2022/06/09 03:26:17;;;;;;;4.7;3.6;;;;;;;13.6;89.28125;94798.12;;;;
2022/06/09 03:27:17;;;;;;;4.7;3.6;;;;;;;13.6;89.28125;94798.12;;;;
2022/06/09 03:28:18;;;;;;;4.7;3.6;;;;;;;13.6;89.28125;94798.12;;;;
2022/06/09 03:29:20;;;;;;;4.7;3.6;;;;;;;13.6;89.28125;94798.12;;;;
2022/06/09 03:30:20;;;;;;;4.7;3.6;;;;;;;13.6;89.28125;94798.12;;;;
2022/06/09 03:31:21;;;;;;;4.7;3.6;;;;;;;13.6;89.28125;94798.12;;;;
2022/06/09 03:32:22;;;;;;;4.7;3.6;;;;;;;13.6;89.28125;94798.12;;;;
2022/06/09 03:33:22;;;;;;;4.7;3.6;;;;;;;13.6;89.28125;94798.12;;;;
2022/06/09 03:34:23;;;;;;;4.7;3.6;;;;;;;13.6;89.28125;94798.12;;;;
2022/06/09 03:35:24;;;;;;;4.7;3.6;;;;;;;13.6;89.28125;94798.12;;;;
2022/06/09 03:36:24;;;;;;;4.7;3.6;;;;;;;13.6;89.28125;94798.12;;;;
2022/06/09 03:37:25;;;;;;;3.7;3.2;;;;;;;13.57;89.62109;94810.01;;;;
2022/06/09 03:38:26;;;;;;;3.7;3.2;;;;;;;13.57;89.62109;94810.01;;;;
2022/06/09 03:39:27;;;;;;;3.7;3.2;;;;;;;13.57;89.62109;94810.01;;;;
2022/06/09 03:40:28;;;;;;;3.7;3.2;;;;;;;13.57;89.62109;94810.01;;;;
2022/06/09 03:41:29;;;;;;;3.7;3.2;;;;;;;13.57;89.62109;94810.01;;;;
2022/06/09 03:42:30;;;;;;;3.7;3.2;;;;;;;13.57;89.62109;94810.01;;;;
2022/06/09 03:43:30;;;;;;;3.7;3.2;;;;;;;13.57;89.62109;94810.01;;;;
2022/06/09 03:44:30;;;;;;;3.7;3.2;;;;;;;13.57;89.62109;94810.01;;;;
2022/06/09 03:45:31;;;;;;;3.7;3.2;;;;;;;13.57;89.62109;94810.01;;;;
2022/06/09 03:46:33;;;;;;;3.7;3.2;;;;;;;13.57;89.62109;94810.01;;;;
2022/06/09 03:47:34;;;;;;;3.9;3.45;;;;;;;13.68;89.75195;94806.09;;;;
2022/06/09 03:48:34;;;;;;;3.9;3.45;;;;;;;13.68;89.75195;94806.09;;;;
2022/06/09 03:49:35;;;;;;;3.9;3.45;;;;;;;13.68;89.75195;94806.09;;;;
2022/06/09 03:50:35;;;;;;;3.9;3.45;;;;;;;13.68;89.75195;94806.09;;;;
2022/06/09 03:51:36;;;;;;;3.9;3.45;;;;;;;13.68;89.75195;94806.09;;;;
2022/06/09 03:52:36;;;;;;;3.9;3.45;;;;;;;13.68;89.75195;94806.09;;;;
2022/06/09 03:53:37;;;;;;;3.9;3.45;;;;;;;13.68;89.75195;94806.09;;;;
2022/06/09 03:54:38;;;;;;;3.9;3.45;;;;;;;13.68;89.75195;94806.09;;;;
2022/06/09 03:55:38;;;;;;;3.9;3.45;;;;;;;13.68;89.75195;94806.09;;;;
2022/06/09 03:56:39;;;;;;;3.9;3.45;;;;;;;13.68;89.75195;94806.09;;;;
2022/06/09 03:57:40;;;;;;;3.9;3.45;;;;;;;13.68;89.75195;94806.09;;;;
2022/06/09 03:58:41;;;;;;;4.9;3.2;;;;;;;13.73;89.68555;94816.8;;;;
2022/06/09 03:59:41;;;;;;;4.9;3.2;;;;;;;13.73;89.68555;94816.8;;;;
2022/06/09 04:00:42;;;;;;;4.9;3.2;;;;;;;13.73;89.68555;94816.8;;;;
2022/06/09 04:01:42;;;;;;;4.9;3.2;;;;;;;13.73;89.68555;94816.8;;;;
2022/06/09 04:02:43;;;;;;;4.9;3.2;;;;;;;13.73;89.68555;94816.8;;;;
2022/06/09 04:03:43;;;;;;;4.9;3.2;;;;;;;13.73;89.68555;94816.8;;;;
2022/06/09 04:04:44;;;;;;;4.9;3.2;;;;;;;13.73;89.68555;94816.8;;;;
2022/06/09 04:05:45;;;;;;;4.9;3.2;;;;;;;13.73;89.68555;94816.8;;;;
2022/06/09 04:06:46;;;;;;;4.9;3.2;;;;;;;13.73;89.68555;94816.8;;;;
2022/06/09 04:07:47;;;;;;;4.9;3.2;;;;;;;13.73;89.68555;94816.8;;;;
2022/06/09 04:08:48;;;;;;;4.9;3.2;;;;;;;13.73;89.68555;94816.8;;;;
2022/06/09 04:09:50;;;;;;;4.9;3;;;;;;;13.84;89.83789;94819.33;;;;
2022/06/09 04:10:51;;;;;;;4.9;3;;;;;;;13.84;89.83789;94819.33;;;;
2022/06/09 04:11:52;;;;;;;4.9;3;;;;;;;13.84;89.83789;94819.33;;;;
2022/06/09 04:12:52;;;;;;;4.9;3;;;;;;;13.84;89.83789;94819.33;;;;
2022/06/09 04:13:53;;;;;;;4.9;3;;;;;;;13.84;89.83789;94819.33;;;;
2022/06/09 04:14:53;;;;;;;4.9;3;;;;;;;13.84;89.83789;94819.33;;;;
2022/06/09 04:15:54;;;;;;;4.9;3;;;;;;;13.84;89.83789;94819.33;;;;
2022/06/09 04:16:55;;;;;;;4.9;3;;;;;;;13.84;89.83789;94819.33;;;;
2022/06/09 04:17:56;;;;;;;4.9;3;;;;;;;13.84;89.83789;94819.33;;;;
2022/06/09 04:18:59;;;;;;;4.9;3;;;;;;;13.84;89.83789;94819.33;;;;
2022/06/09 04:20:01;;;;;;;4.8;2.95;;;;;;;13.99;89.77148;94818.75;;;;
2022/06/09 04:21:02;;;;;;;4.8;2.95;;;;;;;13.99;89.77148;94818.75;;;;
2022/06/09 04:22:03;;;;;;;4.8;2.95;;;;;;;13.99;89.77148;94818.75;;;;
2022/06/09 04:23:04;;;;;;;4.8;2.95;;;;;;;13.99;89.77148;94818.75;;;;
2022/06/09 04:24:05;;;;;;;4.8;2.95;;;;;;;13.99;89.77148;94818.75;;;;
2022/06/09 04:25:06;;;;;;;4.8;2.95;;;;;;;13.99;89.77148;94818.75;;;;
2022/06/09 04:26:08;;;;;;;4.8;2.95;;;;;;;13.99;89.77148;94818.75;;;;
2022/06/09 04:27:12;;;;;;;4.8;2.95;;;;;;;13.99;89.77148;94818.75;;;;
2022/06/09 04:28:13;;;;;;;4.8;2.95;;;;;;;13.99;89.77148;94818.75;;;;
2022/06/09 04:29:13;;;;;;;4.8;2.95;;;;;;;13.99;89.77148;94818.75;;;;
2022/06/09 04:30:14;;;;;;;3.25;2.9;;;;;;;14.28;89.86328;94828.64;;;;
2022/06/09 04:31:15;;;;;;;3.25;2.9;;;;;;;14.28;89.86328;94828.64;;;;
2022/06/09 04:32:17;;;;;;;3.25;2.9;;;;;;;14.28;89.86328;94828.64;;;;
2022/06/09 04:33:17;;;;;;;3.25;2.9;;;;;;;14.28;89.86328;94828.64;;;;
2022/06/09 04:34:18;;;;;;;3.25;2.9;;;;;;;14.28;89.86328;94828.64;;;;
2022/06/09 04:35:18;;;;;;;3.25;2.9;;;;;;;14.28;89.86328;94828.64;;;;
2022/06/09 04:36:19;;;;;;;3.25;2.9;;;;;;;14.28;89.86328;94828.64;;;;
2022/06/09 04:37:20;;;;;;;3.25;2.9;;;;;;;14.28;89.86328;94828.64;;;;
2022/06/09 04:38:20;;;;;;;3.25;2.9;;;;;;;14.28;89.86328;94828.64;;;;
2022/06/09 04:39:21;;;;;;;3.25;2.9;;;;;;;14.28;89.86328;94828.64;;;;
2022/06/09 04:40:21;;;;;;;3.25;2.9;;;;;;;14.28;89.86328;94828.64;;;;
2022/06/09 04:41:22;;;;;;;2.9;2.6;;;;;;;14.53;89.82813;94839.62;;;;
2022/06/09 04:42:23;;;;;;;2.9;2.6;;;;;;;14.53;89.82813;94839.62;;;;
2022/06/09 04:43:23;;;;;;;2.9;2.6;;;;;;;14.53;89.82813;94839.62;;;;
2022/06/09 04:44:24;;;;;;;2.9;2.6;;;;;;;14.53;89.82813;94839.62;;;;
2022/06/09 04:45:24;;;;;;;2.9;2.6;;;;;;;14.53;89.82813;94839.62;;;;
2022/06/09 04:46:25;;;;;;;2.9;2.6;;;;;;;14.53;89.82813;94839.62;;;;
2022/06/09 04:47:26;;;;;;;2.9;2.6;;;;;;;14.53;89.82813;94839.62;;;;
2022/06/09 04:48:26;;;;;;;2.9;2.6;;;;;;;14.53;89.82813;94839.62;;;;
2022/06/09 04:49:27;;;;;;;2.9;2.6;;;;;;;14.53;89.82813;94839.62;;;;
2022/06/09 04:50:27;;;;;;;2.9;2.6;;;;;;;14.53;89.82813;94839.62;;;;
2022/06/09 04:51:29;;;;;;;2.9;2.6;;;;;;;14.53;89.82813;94839.62;;;;
2022/06/09 04:52:30;;;;;;;3.3;2.35;;;;;;;14.84;89.9541;94847.03;;;;
2022/06/09 04:53:31;;;;;;;3.3;2.35;;;;;;;14.84;89.9541;94847.03;;;;
2022/06/09 04:54:32;;;;;;;3.3;2.35;;;;;;;14.84;89.9541;94847.03;;;;
2022/06/09 04:55:32;;;;;;;3.3;2.35;;;;;;;14.84;89.9541;94847.03;;;;
2022/06/09 04:56:34;;;;;;;3.3;2.35;;;;;;;14.84;89.9541;94847.03;;;;
2022/06/09 04:57:35;;;;;;;3.3;2.35;;;;;;;14.84;89.9541;94847.03;;;;
2022/06/09 04:58:38;;;;;;;3.3;2.35;;;;;;;14.84;89.9541;94847.03;;;;
2022/06/09 04:59:38;;;;;;;3.3;2.35;;;;;;;14.84;89.9541;94847.03;;;;
2022/06/09 05:00:39;;;;;;;3.3;2.35;;;;;;;14.84;89.9541;94847.03;;;;
2022/06/09 05:01:40;;;;;;;3.3;2.35;;;;;;;14.84;89.9541;94847.03;;;;
2022/06/09 05:02:40;;;;;;;3.999999;2.75;;;;;;;15.01;89.81641;94850.44;;;;
2022/06/09 05:03:41;;;;;;;3.999999;2.75;;;;;;;15.01;89.81641;94850.44;;;;
2022/06/09 05:04:42;;;;;;;3.999999;2.75;;;;;;;15.01;89.81641;94850.44;;;;
2022/06/09 05:05:43;;;;;;;3.999999;2.75;;;;;;;15.01;89.81641;94850.44;;;;
2022/06/09 05:06:46;;;;;;;3.999999;2.75;;;;;;;15.01;89.81641;94850.44;;;;
2022/06/09 05:07:46;;;;;;;3.999999;2.75;;;;;;;15.01;89.81641;94850.44;;;;
2022/06/09 05:08:47;;;;;;;3.999999;2.75;;;;;;;15.01;89.81641;94850.44;;;;
2022/06/09 05:09:49;;;;;;;3.999999;2.75;;;;;;;15.01;89.81641;94850.44;;;;
2022/06/09 05:10:49;;;;;;;3.999999;2.75;;;;;;;15.01;89.81641;94850.44;;;;
2022/06/09 05:11:50;;;;;;;3.999999;2.75;;;;;;;15.01;89.81641;94850.44;;;;
2022/06/09 05:12:51;;;;;;;3.999999;2.75;;;;;;;15.01;89.81641;94850.44;;;;
2022/06/09 05:13:52;;;;;;;4;3.05;;;;;;;15.15;89.80176;94858.31;;;;
2022/06/09 05:14:53;;;;;;;4;3.05;;;;;;;15.15;89.80176;94858.31;;;;
2022/06/09 05:15:53;;;;;;;4;3.05;;;;;;;15.15;89.80176;94858.31;;;;
2022/06/09 05:16:56;;;;;;;4;3.05;;;;;;;15.15;89.80176;94858.31;;;;
2022/06/09 05:17:58;;;;;;;4;3.05;;;;;;;15.15;89.80176;94858.31;;;;
2022/06/09 05:18:58;;;;;;;4;3.05;;;;;;;15.15;89.80176;94858.31;;;;
2022/06/09 05:19:59;;;;;;;4;3.05;;;;;;;15.15;89.80176;94858.31;;;;
2022/06/09 05:20:59;;;;;;;4;3.05;;;;;;;15.15;89.80176;94858.31;;;;
2022/06/09 05:22:00;;;;;;;4;3.05;;;;;;;15.15;89.80176;94858.31;;;;
2022/06/09 05:23:01;;;;;;;4;3.05;;;;;;;15.15;89.80176;94858.31;;;;
2022/06/09 05:24:01;;;;;;;3.2;2.85;;;;;;;15.18;89.79688;94861.28;;;;
2022/06/09 05:25:02;;;;;;;3.2;2.85;;;;;;;15.18;89.79688;94861.28;;;;
2022/06/09 05:26:03;;;;;;;3.2;2.85;;;;;;;15.18;89.79688;94861.28;;;;
2022/06/09 05:27:06;;;;;;;3.2;2.85;;;;;;;15.18;89.79688;94861.28;;;;
2022/06/09 05:28:06;;;;;;;3.2;2.85;;;;;;;15.18;89.79688;94861.28;;;;
2022/06/09 05:29:07;;;;;;;3.2;2.85;;;;;;;15.18;89.79688;94861.28;;;;
2022/06/09 05:30:07;;;;;;;3.2;2.85;;;;;;;15.18;89.79688;94861.28;;;;
2022/06/09 05:31:13;;;;;;;3.2;2.85;;;;;;;15.18;89.79688;94861.28;;;;
2022/06/09 05:32:14;;;;;;;3.2;2.85;;;;;;;15.18;89.79688;94861.28;;;;
2022/06/09 05:33:14;;;;;;;3.2;2.85;;;;;;;15.18;89.79688;94861.28;;;;
2022/06/09 05:34:15;;;;;;;3.65;2.9;;;;;;;15.55;90.10938;94876.57;;;;
2022/06/09 05:35:15;;;;;;;3.65;2.9;;;;;;;15.55;90.10938;94876.57;;;;
2022/06/09 05:36:17;;;;;;;3.65;2.9;;;;;;;15.55;90.10938;94876.57;;;;
2022/06/09 05:37:18;;;;;;;3.65;2.9;;;;;;;15.55;90.10938;94876.57;;;;
2022/06/09 05:48:41;;;;;;;3.1;2.8;;;;;;;15.86;89.63086;94881.12;;;;
2022/06/09 05:49:44;;;;;;;3.1;2.8;;;;;;;15.86;89.63086;94881.12;;;;
2022/06/09 05:50:45;;;;;;;3.1;2.8;;;;;;;15.86;89.63086;94881.12;;;;
2022/06/09 05:51:47;;;;;;;3.1;2.8;;;;;;;15.86;89.63086;94881.12;;;;
2022/06/09 05:52:48;;;;;;;3.1;2.8;;;;;;;15.86;89.63086;94881.12;;;;
2022/06/09 05:53:48;;;;;;;3.1;2.8;;;;;;;15.86;89.63086;94881.12;;;;
2022/06/09 05:54:49;;;;;;;3.1;2.8;;;;;;;15.86;89.63086;94881.12;;;;
2022/06/09 05:55:50;;;;;;;4.349999;3.05;;;;;;;15.89;89.28027;94893.41;;;;
2022/06/09 05:56:51;;;;;;;4.349999;3.05;;;;;;;15.89;89.28027;94893.41;;;;
2022/06/09 05:57:52;;;;;;;4.349999;3.05;;;;;;;15.89;89.28027;94893.41;;;;
2022/06/09 05:58:52;;;;;;;4.349999;3.05;;;;;;;15.89;89.28027;94893.41;;;;
2022/06/09 05:59:53;;;;;;;4.349999;3.05;;;;;;;15.89;89.28027;94893.41;;;;
2022/06/09 06:00:54;;;;;;;4.349999;3.05;;;;;;;15.89;89.28027;94893.41;;;;
2022/06/09 06:01:54;;;;;;;4.349999;3.05;;;;;;;15.89;89.28027;94893.41;;;;
2022/06/09 06:02:55;;;;;;;4.349999;3.05;;;;;;;15.89;89.28027;94893.41;;;;
2022/06/09 06:03:55;;;;;;;4.349999;3.05;;;;;;;15.89;89.28027;94893.41;;;;
2022/06/09 06:04:56;;;;;;;4.349999;3.05;;;;;;;15.89;89.28027;94893.41;;;;
2022/06/09 06:07:01;;;;;;;4.349999;3.05;;;;;;;15.89;89.28027;94893.41;;;;
2022/06/09 06:08:02;;;;;;;4.75;2.7;;;;;;;15.85;89.6416;94906.03;;;;
2022/06/09 06:09:03;;;;;;;4.75;2.7;;;;;;;15.85;89.6416;94906.03;;;;
2022/06/09 06:10:07;;;;;;;4.75;2.7;;;;;;;15.85;89.6416;94906.03;;;;
2022/06/09 06:11:07;;;;;;;4.75;2.7;;;;;;;15.85;89.6416;94906.03;;;;
2022/06/09 06:12:09;;;;;;;4.75;2.7;;;;;;;15.85;89.6416;94906.03;;;;
2022/06/09 06:13:10;;;;;;;4.75;2.7;;;;;;;15.85;89.6416;94906.03;;;;
2022/06/09 06:14:10;;;;;;;4.75;2.7;;;;;;;15.85;89.6416;94906.03;;;;